Time;durP1;ratioP1;P1;durP2;ratioP2;P2;SDS_P1;SDS_P2;PMS_P1;PMS_P2;Temp;Humidity;BMP_temperature;BMP_pressure;BME280_temperature;BME280_humidity;BME280_pressure;Samples;Min_cycle;Max_cycle;Signal;HPM_P1;HPM_P2
2022/06/14 00:01:16;;;;;;;3.75;1.20;;;18.10;73.40;;;;;;10510956;28;20032;-58
2022/06/14 00:06:20;;;;;;;2.83;0.90;;;18.10;73.40;;;;;;10505391;28;20024;-57
2022/06/14 00:11:27;;;;;;;1.10;0.90;;;18.10;73.50;;;;;;10504977;28;20043;-56
2022/06/14 00:16:29;;;;;;;1.38;0.90;;;18.10;73.50;;;;;;10506675;28;20027;-60
2022/06/14 00:21:30;;;;;;;5.38;1.48;;;18.00;73.50;;;;;;10503222;28;20114;-65
2022/06/14 00:26:32;;;;;;;2.55;1.00;;;18.00;73.60;;;;;;10506603;28;20016;-64
2022/06/14 00:31:34;;;;;;;1.77;1.10;;;17.90;73.60;;;;;;10503972;28;20177;-60
2022/06/14 00:36:35;;;;;;;3.30;1.20;;;17.90;73.60;;;;;;10503229;28;20119;-65
2022/06/14 00:41:40;;;;;;;3.35;1.00;;;17.90;73.60;;;;;;10504541;28;20084;-58
2022/06/14 00:47:03;;;;;;;2.53;1.00;;;17.90;73.60;;;;;;10512932;28;20016;-62
2022/06/14 00:52:22;;;;;;;3.30;1.08;;;17.80;73.60;;;;;;10501325;28;20100;-58
2022/06/14 00:57:26;;;;;;;3.17;1.08;;;17.80;73.70;;;;;;10497896;28;20485;-61
2022/06/14 01:02:31;;;;;;;2.78;1.05;;;17.70;73.70;;;;;;10499862;28;20021;-57
2022/06/14 01:07:36;;;;;;;2.75;1.40;;;17.70;73.70;;;;;;10502786;28;20016;-60
2022/06/14 01:12:41;;;;;;;2.05;1.20;;;17.70;73.80;;;;;;10507776;28;20032;-58
2022/06/14 01:17:48;;;;;;;3.45;1.27;;;17.70;73.80;;;;;;10510474;28;20056;-62
2022/06/14 01:22:50;;;;;;;1.73;1.20;;;17.60;73.80;;;;;;10508701;28;20028;-58
2022/06/14 01:27:53;;;;;;;3.03;1.25;;;17.60;73.80;;;;;;10515236;28;20060;-65
2022/06/14 01:32:59;;;;;;;3.08;1.10;;;17.60;73.80;;;;;;10515171;28;20459;-57
2022/06/14 01:38:03;;;;;;;3.58;1.05;;;17.50;73.90;;;;;;10507291;28;20074;-58
2022/06/14 01:43:19;;;;;;;1.92;1.15;;;17.50;73.90;;;;;;10515449;28;20043;-64
2022/06/14 01:48:20;;;;;;;3.15;1.05;;;17.50;73.90;;;;;;10522595;28;20054;-57
2022/06/14 01:53:36;;;;;;;1.55;0.80;;;17.40;73.90;;;;;;10502145;28;20591;-59
2022/06/14 01:58:58;;;;;;;2.38;1.02;;;17.40;73.90;;;;;;10513879;28;20027;-64
2022/06/14 02:09:38;;;;;;;3.20;1.00;;;17.40;74.00;;;;;;10510931;28;20067;-62
2022/06/14 02:14:58;;;;;;;5.07;1.55;;;17.30;73.90;;;;;;10510436;28;20712;-57
2022/06/14 02:20:07;;;;;;;2.45;1.05;;;17.30;74.00;;;;;;10516477;28;20123;-63
2022/06/14 02:25:17;;;;;;;4.15;1.50;;;17.30;74.00;;;;;;10517823;28;20374;-60
2022/06/14 02:30:23;;;;;;;4.03;1.20;;;17.20;74.00;;;;;;10514072;28;20024;-62
2022/06/14 02:35:29;;;;;;;2.45;0.90;;;17.20;74.00;;;;;;10513676;28;20169;-58
2022/06/14 02:40:38;;;;;;;1.75;1.10;;;17.20;74.70;;;;;;10502970;28;20046;-57
2022/06/14 02:45:41;;;;;;;2.00;1.02;;;17.20;74.10;;;;;;10508677;28;20093;-60
2022/06/14 02:51:23;;;;;;;2.47;1.10;;;17.10;74.00;;;;;;10510594;28;20631;-56
2022/06/14 02:57:05;;;;;;;4.30;1.25;;;17.10;74.10;;;;;;10491076;28;20040;-61
2022/06/14 03:02:43;;;;;;;2.92;1.17;;;17.10;74.20;;;;;;10472835;28;20049;-58
2022/06/14 03:07:53;;;;;;;2.72;1.08;;;17.10;74.20;;;;;;10456416;28;20703;-57
2022/06/14 03:13:04;;;;;;;2.08;1.27;;;17.00;74.10;;;;;;10506710;28;20033;-58
2022/06/14 03:18:24;;;;;;;1.80;1.10;;;17.00;74.20;;;;;;10510230;28;20028;-64
2022/06/14 03:23:51;;;;;;;4.93;1.02;;;17.00;74.30;;;;;;10507172;28;20021;-58
2022/06/14 03:29:04;;;;;;;1.80;1.10;;;16.90;74.20;;;;;;10502821;28;20025;-64
2022/06/14 03:34:14;;;;;;;3.40;1.10;;;16.90;74.20;;;;;;10507775;28;20058;-62
2022/06/14 03:39:22;;;;;;;2.72;1.13;;;16.90;74.20;;;;;;10507841;28;20028;-57
2022/06/14 03:44:25;;;;;;;;;;;16.90;74.30;;;;;;10496827;28;20024;-57
2022/06/14 03:49:26;;;;;;;2.45;0.80;;;16.90;74.40;;;;;;10507923;28;20320;-56
2022/06/14 03:54:53;;;;;;;4.15;1.63;;;16.90;74.20;;;;;;10504191;28;20131;-65
2022/06/14 04:00:16;;;;;;;1.42;0.90;;;16.90;74.30;;;;;;10510515;28;20381;-64
2022/06/14 04:05:35;;;;;;;1.77;0.90;;;16.80;74.40;;;;;;10508958;28;20051;-59
2022/06/14 04:11:11;;;;;;;2.20;1.00;;;16.80;74.30;;;;;;10501799;28;20044;-57
2022/06/14 04:16:42;;;;;;;2.95;0.90;;;16.80;74.40;;;;;;10506684;28;20074;-62
2022/06/14 04:21:57;;;;;;;1.92;1.10;;;16.80;74.40;;;;;;10505297;28;20452;-57
2022/06/14 04:27:04;;;;;;;3.45;1.02;;;16.80;74.40;;;;;;10504427;28;20028;-60
2022/06/14 04:32:17;;;;;;;2.80;1.10;;;16.80;74.40;;;;;;10512995;28;20040;-57
2022/06/14 04:37:32;;;;;;;2.78;0.90;;;16.70;74.40;;;;;;10507804;28;20021;-61
2022/06/14 04:42:57;;;;;;;2.53;1.00;;;16.80;74.50;;;;;;10504548;28;20043;-59
2022/06/14 04:48:07;;;;;;;1.63;1.17;;;16.80;74.50;;;;;;10516398;28;20364;-58
2022/06/14 04:53:15;;;;;;;2.35;0.95;;;16.70;74.50;;;;;;10514323;28;20032;-58
2022/06/14 04:58:30;;;;;;;2.72;1.02;;;16.70;74.50;;;;;;10514258;28;20070;-61
2022/06/14 05:03:37;;;;;;;3.88;2.15;;;16.70;74.50;;;;;;10508567;28;20054;-56
2022/06/14 05:08:52;;;;;;;2.08;1.02;;;16.70;74.60;;;;;;10512030;28;20028;-58
2022/06/14 05:14:17;;;;;;;1.33;0.88;;;16.70;74.60;;;;;;10512595;28;20039;-61
2022/06/14 05:19:58;;;;;;;2.13;0.93;;;16.80;74.80;;;;;;10506350;28;20028;-61
2022/06/14 05:25:01;;;;;;;4.82;1.95;;;16.70;74.80;;;;;;10515739;28;20047;-56
2022/06/14 05:30:06;;;;;;;1.95;1.10;;;16.70;74.60;;;;;;10508164;28;20029;-57
2022/06/14 05:35:25;;;;;;;2.63;1.10;;;16.70;74.70;;;;;;10509629;28;20122;-57
2022/06/14 05:40:51;;;;;;;2.72;0.90;;;16.80;75.00;;;;;;10513244;28;20023;-58
2022/06/14 05:46:07;;;;;;;5.68;1.20;;;16.80;75.00;;;;;;10502429;28;20025;-57
2022/06/14 05:51:11;;;;;;;3.88;1.27;;;16.80;75.00;;;;;;10512132;28;20500;-62
2022/06/14 05:56:33;;;;;;;2.65;1.23;;;16.80;75.10;;;;;;10505800;28;20027;-62
2022/06/14 06:01:41;;;;;;;6.45;1.17;;;16.80;75.30;;;;;;10507281;28;20016;-59
2022/06/14 06:06:49;;;;;;;2.95;1.20;;;16.80;75.20;;;;;;10511054;28;20024;-56
2022/06/14 06:12:02;;;;;;;1.67;0.90;;;16.80;75.30;;;;;;10504813;28;20048;-56
2022/06/14 06:17:18;;;;;;;2.03;0.90;;;16.80;75.30;;;;;;10507696;28;20024;-57
2022/06/14 06:22:29;;;;;;;3.35;1.05;;;16.80;75.50;;;;;;10508734;28;20132;-58
2022/06/14 06:27:39;;;;;;;3.33;1.10;;;16.80;75.40;;;;;;10510779;28;20039;-62
2022/06/14 06:32:41;;;;;;;2.20;0.95;;;16.80;75.50;;;;;;10504092;28;20425;-59
2022/06/14 06:37:49;;;;;;;5.03;1.58;;;16.80;75.40;;;;;;10511531;28;20024;-60
2022/06/14 06:43:09;;;;;;;4.05;1.70;;;16.80;76.50;;;;;;10506033;28;20389;-59
2022/06/14 06:48:19;;;;;;;5.15;1.95;;;16.60;78.10;;;;;;10506880;28;20032;-59
2022/06/14 06:53:21;;;;;;;6.28;1.45;;;16.60;78.80;;;;;;10506396;28;20449;-58
2022/06/14 06:58:32;;;;;;;5.25;1.58;;;16.70;78.30;;;;;;10512238;28;21442;-63
2022/06/14 07:03:42;;;;;;;5.10;2.00;;;16.80;78.50;;;;;;10501849;28;20020;-60
2022/06/14 07:09:11;;;;;;;2.75;1.30;;;16.80;78.20;;;;;;10505446;28;20081;-62
2022/06/14 07:14:23;;;;;;;6.10;1.33;;;16.80;78.30;;;;;;10506967;28;20032;-58
2022/06/14 07:20:01;;;;;;;9.20;2.40;;;16.90;78.10;;;;;;10510411;28;20103;-65
2022/06/14 07:25:11;;;;;;;2.97;1.23;;;16.90;78.20;;;;;;10505312;28;20031;-57
2022/06/14 07:30:20;;;;;;;2.30;1.20;;;17.00;77.60;;;;;;10507548;28;20658;-58
2022/06/14 07:35:39;;;;;;;3.92;1.20;;;17.10;77.50;;;;;;10506760;28;20039;-58
2022/06/14 07:40:51;;;;;;;3.03;1.13;;;17.10;77.40;;;;;;10500550;28;20106;-58
2022/06/14 07:45:53;;;;;;;4.15;1.50;;;17.10;77.40;;;;;;10495771;28;20027;-64
2022/06/14 07:51:02;;;;;;;6.07;1.27;;;17.10;77.20;;;;;;10503068;28;20039;-57
2022/06/14 07:56:26;;;;;;;3.03;0.80;;;17.20;77.10;;;;;;10497866;28;20557;-60
2022/06/14 08:01:32;;;;;;;2.72;1.10;;;17.20;77.30;;;;;;10505219;28;20116;-57
2022/06/14 08:06:51;;;;;;;2.25;1.10;;;17.30;77.10;;;;;;10496418;28;20384;-61
2022/06/14 08:11:57;;;;;;;1.70;1.00;;;17.30;77.00;;;;;;10487162;28;20040;-59
2022/06/14 08:16:58;;;;;;;2.95;1.58;;;17.30;76.80;;;;;;10493799;28;20106;-64
2022/06/14 08:22:07;;;;;;;3.03;0.88;;;17.40;76.70;;;;;;10507129;28;20032;-57
2022/06/14 08:27:20;;;;;;;1.80;0.82;;;17.40;76.60;;;;;;10501162;28;20037;-61
2022/06/14 08:32:42;;;;;;;2.88;1.15;;;17.50;76.40;;;;;;10512082;28;20036;-60
2022/06/14 08:37:53;;;;;;;2.00;1.10;;;17.50;76.40;;;;;;10492012;28;20029;-57
2022/06/14 08:43:03;;;;;;;3.95;1.08;;;17.50;76.20;;;;;;10504159;28;20039;-56
2022/06/14 08:48:33;;;;;;;1.35;1.00;;;17.60;76.00;;;;;;10502654;28;20472;-62
2022/06/14 08:54:00;;;;;;;4.40;1.30;;;17.60;76.00;;;;;;10494482;28;20108;-62
2022/06/14 08:59:22;;;;;;;2.58;1.10;;;17.60;76.10;;;;;;10494023;28;20033;-58
2022/06/14 09:05:06;;;;;;;2.83;1.00;;;17.60;76.00;;;;;;10498565;28;20093;-57
2022/06/14 09:10:45;;;;;;;3.85;0.95;;;17.60;75.70;;;;;;10503734;28;20062;-57
2022/06/14 09:16:26;;;;;;;1.90;0.95;;;17.70;75.80;;;;;;10468639;28;20737;-58
2022/06/14 09:22:05;;;;;;;5.03;1.70;;;17.70;75.60;;;;;;10503416;28;20036;-64
2022/06/14 09:27:42;;;;;;;2.05;0.90;;;17.50;75.40;;;;;;10505681;28;20480;-61
2022/06/14 09:33:12;;;;;;;5.22;1.13;;;17.80;75.50;;;;;;10509065;28;20044;-57
2022/06/14 09:38:22;;;;;;;1.13;0.80;;;17.80;75.60;;;;;;10509011;28;20031;-57
2022/06/14 09:43:36;;;;;;;1.63;1.00;;;17.80;75.60;;;;;;10512502;28;20039;-61
2022/06/14 09:49:25;;;;;;;1.58;0.90;;;17.80;75.50;;;;;;10506422;28;20024;-64
2022/06/14 09:54:40;;;;;;;1.58;0.90;;;17.90;75.30;;;;;;10500072;28;20052;-57
2022/06/14 10:00:02;;;;;;;2.25;1.30;;;17.90;75.10;;;;;;10513378;28;20396;-63
2022/06/14 10:05:37;;;;;;;3.67;1.02;;;18.10;75.00;;;;;;10509819;28;20024;-57
2022/06/14 10:10:38;;;;;;;2.25;0.80;;;18.20;74.60;;;;;;10515154;28;20066;-57
2022/06/14 10:16:16;;;;;;;2.03;0.90;;;18.20;74.40;;;;;;10515294;28;20040;-57
2022/06/14 10:21:21;;;;;;;2.23;1.07;;;18.20;74.20;;;;;;10494656;28;20029;-57
2022/06/14 10:32:46;;;;;;;2.28;0.82;;;18.10;74.40;;;;;;10505090;28;20568;-57
2022/06/14 10:38:14;;;;;;;1.85;0.90;;;18.10;74.60;;;;;;10501855;28;20056;-63
2022/06/14 10:43:18;;;;;;;1.55;1.30;;;18.10;74.60;;;;;;10500621;28;20025;-57
2022/06/14 10:48:31;;;;;;;3.28;1.20;;;18.20;75.10;;;;;;10501469;28;20047;-57
2022/06/14 10:53:48;;;;;;;2.63;1.10;;;18.30;74.30;;;;;;10499463;28;20147;-59
2022/06/14 10:58:58;;;;;;;2.08;0.88;;;18.40;74.00;;;;;;10514907;28;20078;-57
2022/06/14 11:04:19;;;;;;;1.98;1.20;;;18.50;73.90;;;;;;10513401;28;20036;-59
2022/06/14 11:10:01;;;;;;;1.52;0.95;;;18.60;73.60;;;;;;10511946;28;20401;-59
2022/06/14 11:15:14;;;;;;;3.30;0.88;;;18.70;73.50;;;;;;10473806;28;20068;-59
2022/06/14 11:21:05;;;;;;;3.17;1.10;;;18.70;73.50;;;;;;10509812;28;20718;-63
2022/06/14 11:26:19;;;;;;;2.10;1.08;;;18.90;73.40;;;;;;10463084;28;20425;-60
2022/06/14 11:31:25;;;;;;;2.42;1.25;;;18.90;73.20;;;;;;10501809;28;20059;-59
2022/06/14 11:36:47;;;;;;;1.08;0.82;;;18.90;73.30;;;;;;10507446;28;20202;-60
2022/06/14 11:41:50;;;;;;;2.38;1.00;;;18.80;73.20;;;;;;10505480;28;20432;-65
2022/06/14 11:47:02;;;;;;;2.88;1.05;;;18.70;73.60;;;;;;10499202;28;20025;-60
2022/06/14 11:52:39;;;;;;;1.85;0.90;;;18.70;73.70;;;;;;10493770;28;20707;-56
2022/06/14 11:58:04;;;;;;;1.73;0.80;;;18.80;73.40;;;;;;10493561;28;20020;-59
2022/06/14 12:03:36;;;;;;;1.83;0.73;;;18.90;73.30;;;;;;10486436;28;20032;-59
2022/06/14 12:08:45;;;;;;;2.13;0.70;;;19.00;73.10;;;;;;10500928;28;20447;-61
2022/06/14 12:14:04;;;;;;;3.20;1.10;;;19.10;72.90;;;;;;10502157;28;20090;-61
2022/06/14 12:19:11;;;;;;;2.20;1.15;;;19.30;72.50;;;;;;10500822;28;20027;-63
2022/06/14 12:24:19;;;;;;;2.35;1.42;;;19.90;71.10;;;;;;10504998;28;20111;-61
2022/06/14 12:29:26;;;;;;;;;;;20.30;69.90;;;;;;10510518;28;20518;-61
2022/06/14 12:34:33;;;;;;;6.32;1.00;;;20.40;69.10;;;;;;10508096;28;19917;-63
2022/06/14 12:40:06;;;;;;;4.15;1.20;;;20.20;69.90;;;;;;10499907;28;20423;-61
2022/06/14 12:45:09;;;;;;;5.45;1.42;;;20.20;70.10;;;;;;10500081;28;20157;-66
2022/06/14 12:50:28;;;;;;;1.08;0.90;;;20.30;69.60;;;;;;10495837;28;20020;-62
2022/06/14 12:55:39;;;;;;;2.78;1.20;;;20.60;69.00;;;;;;10499139;28;20829;-61
2022/06/14 13:00:59;;;;;;;2.85;1.08;;;20.70;68.80;;;;;;10489413;28;20031;-61
2022/06/14 13:06:23;;;;;;;3.22;1.10;;;20.60;68.60;;;;;;10502202;28;20090;-61
2022/06/14 13:11:38;;;;;;;2.85;1.15;;;20.50;67.40;;;;;;10507239;28;20090;-63
2022/06/14 13:16:59;;;;;;;2.30;0.90;;;20.40;68.30;;;;;;10509688;28;20064;-62
2022/06/14 13:22:12;;;;;;;2.08;0.98;;;20.30;69.00;;;;;;10509679;28;20050;-61
2022/06/14 13:27:50;;;;;;;2.20;1.00;;;20.20;68.50;;;;;;10508408;28;20035;-61
2022/06/14 13:32:59;;;;;;;3.70;1.33;;;20.20;68.50;;;;;;10507840;28;20098;-65
2022/06/14 13:38:12;;;;;;;2.65;1.40;;;20.20;68.90;;;;;;10511132;28;20035;-58
2022/06/14 13:43:23;;;;;;;5.65;1.27;;;20.10;69.00;;;;;;10510097;28;20110;-62
2022/06/14 13:48:24;;;;;;;4.13;1.27;;;20.00;68.90;;;;;;10508021;28;20468;-61
2022/06/14 13:53:39;;;;;;;3.45;1.20;;;20.20;69.00;;;;;;10512865;28;20048;-62
2022/06/14 13:58:58;;;;;;;4.40;1.25;;;20.30;68.60;;;;;;10509074;28;20013;-61
2022/06/14 14:04:10;;;;;;;2.83;1.23;;;20.40;68.40;;;;;;10510286;28;20036;-66
2022/06/14 14:09:19;;;;;;;2.50;1.20;;;20.60;67.50;;;;;;10511046;28;20051;-63
2022/06/14 14:14:26;;;;;;;2.38;1.08;;;20.50;67.50;;;;;;10504059;28;20081;-60
2022/06/14 14:20:04;;;;;;;2.40;1.00;;;20.70;67.70;;;;;;10507172;28;20393;-60
2022/06/14 14:25:11;;;;;;;;;;;21.10;66.40;;;;;;10509620;28;20081;-61
2022/06/14 14:30:39;;;;;;;2.83;0.90;;;21.20;65.70;;;;;;10518638;28;19917;-65
2022/06/14 14:35:47;;;;;;;6.20;1.25;;;21.00;67.70;;;;;;10501484;28;20074;-60
2022/06/14 14:46:20;;;;;;;4.78;1.23;;;20.50;66.60;;;;;;10506798;28;19924;-58
2022/06/14 14:51:23;;;;;;;2.85;1.40;;;20.40;67.80;;;;;;10496622;28;20039;-60
2022/06/14 14:56:46;;;;;;;3.42;1.35;;;20.30;67.90;;;;;;10508021;28;20024;-63
2022/06/14 15:07:35;;;;;;;1.88;1.20;;;20.50;67.70;;;;;;10505667;28;20154;-60
2022/06/14 15:12:57;;;;;;;3.97;0.98;;;20.70;66.80;;;;;;10502804;28;20059;-59
2022/06/14 15:23:46;;;;;;;4.00;1.30;;;21.20;66.60;;;;;;10512907;28;20024;-59
2022/06/14 15:28:54;;;;;;;2.78;1.40;;;21.10;66.80;;;;;;10506242;28;20097;-61
2022/06/14 15:34:01;;;;;;;3.38;1.55;;;21.10;66.60;;;;;;10502969;28;20042;-59
2022/06/14 15:39:32;;;;;;;3.97;1.40;;;20.90;67.40;;;;;;10510017;28;20065;-64
2022/06/14 15:44:33;;;;;;;2.45;1.20;;;20.70;67.10;;;;;;10503940;28;20024;-59
2022/06/14 15:49:42;;;;;;;1.73;1.17;;;20.50;67.80;;;;;;10502013;28;20767;-58
2022/06/14 15:54:45;;;;;;;3.70;1.50;;;20.30;68.20;;;;;;10504690;28;20742;-59
2022/06/14 15:59:54;;;;;;;2.78;1.20;;;20.10;68.50;;;;;;10512872;28;20385;-59
2022/06/14 16:04:58;;;;;;;2.05;1.10;;;20.10;68.50;;;;;;10503984;28;20545;-64
2022/06/14 16:10:05;;;;;;;2.22;1.10;;;20.00;68.70;;;;;;10506045;28;20051;-59
2022/06/14 16:15:25;;;;;;;2.58;1.40;;;20.10;68.60;;;;;;10512317;28;20039;-59
2022/06/14 16:20:31;;;;;;;4.22;1.30;;;20.10;68.20;;;;;;10503930;28;20081;-58
2022/06/14 16:25:39;;;;;;;2.33;1.40;;;20.10;68.70;;;;;;10509771;28;20392;-58
2022/06/14 16:30:48;;;;;;;1.50;1.00;;;20.10;68.50;;;;;;10508737;28;20036;-58
2022/06/14 16:35:55;;;;;;;1.88;1.15;;;20.00;68.80;;;;;;10505464;28;20040;-58
2022/06/14 16:41:21;;;;;;;3.27;1.20;;;20.00;68.90;;;;;;10506575;28;20028;-59
2022/06/14 16:47:08;;;;;;;2.10;1.40;;;20.00;69.20;;;;;;10509677;28;20032;-59
2022/06/14 16:52:31;;;;;;;10.37;3.70;;;19.90;69.50;;;;;;10486571;28;20048;-60
2022/06/14 16:57:50;;;;;;;5.60;2.60;;;19.80;69.60;;;;;;10500918;28;20037;-62
2022/06/14 17:03:15;;;;;;;5.72;2.35;;;19.70;70.00;;;;;;10503614;28;20024;-61
2022/06/14 17:08:37;;;;;;;29.90;9.35;;;19.70;69.80;;;;;;10504533;28;20028;-59
2022/06/14 17:13:45;;;;;;;10.95;4.00;;;19.80;70.20;;;;;;10503197;28;20412;-61
2022/06/14 17:18:50;;;;;;;6.13;2.22;;;19.80;70.00;;;;;;10502672;28;20024;-63
2022/06/14 17:24:19;;;;;;;2.95;1.90;;;19.80;70.00;;;;;;10501351;28;20070;-64
2022/06/14 17:34:49;;;;;;;3.25;1.45;;;19.70;70.40;;;;;;10509324;28;20037;-60
2022/06/14 17:40:04;;;;;;;4.72;1.63;;;19.50;70.70;;;;;;10507924;28;20078;-64
2022/06/14 17:45:20;;;;;;;1.90;1.35;;;19.50;71.20;;;;;;10505751;28;20782;-61
2022/06/14 17:50:51;;;;;;;1.23;1.13;;;19.50;71.10;;;;;;10511579;28;20026;-64
2022/06/14 17:56:00;;;;;;;2.35;1.10;;;19.50;71.70;;;;;;10504517;28;20048;-60
2022/06/14 18:01:26;;;;;;;2.20;1.20;;;19.40;72.20;;;;;;10518951;28;20169;-61
2022/06/14 18:06:50;;;;;;;2.53;1.42;;;19.40;72.40;;;;;;10511378;28;20016;-63
2022/06/14 18:11:57;;;;;;;2.35;1.10;;;19.40;72.00;;;;;;10511212;28;20124;-60
2022/06/14 18:16:58;;;;;;;5.20;1.30;;;19.30;72.20;;;;;;10507138;28;20039;-59
2022/06/14 18:22:01;;;;;;;3.05;1.30;;;19.20;72.60;;;;;;10515193;28;20527;-62
2022/06/14 18:27:01;;;;;;;2.47;1.05;;;19.10;73.50;;;;;;10511347;28;20058;-62
2022/06/14 18:32:02;;;;;;;3.00;1.50;;;19.10;74.00;;;;;;10507744;28;20481;-59
2022/06/14 18:37:20;;;;;;;1.88;1.20;;;19.00;74.40;;;;;;10509030;28;20134;-62
2022/06/14 18:42:21;;;;;;;2.78;1.00;;;18.90;75.10;;;;;;10504905;28;20395;-63
2022/06/14 18:47:30;;;;;;;4.25;1.30;;;18.80;75.30;;;;;;10504390;28;20032;-64
2022/06/14 18:52:37;;;;;;;2.53;1.65;;;18.90;76.50;;;;;;10507624;28;20477;-62
2022/06/14 18:57:55;;;;;;;3.05;2.15;;;18.90;76.80;;;;;;10500884;28;20047;-57
2022/06/14 19:03:23;;;;;;;6.97;2.03;;;18.80;77.60;;;;;;10505511;28;20024;-58
2022/06/14 19:08:30;;;;;;;;;;;18.90;77.30;;;;;;10506193;28;20030;-57
2022/06/14 19:13:49;;;;;;;4.18;1.63;;;19.00;77.50;;;;;;10505846;28;19926;-59
2022/06/14 19:18:53;;;;;;;3.15;2.05;;;19.00;76.60;;;;;;10507426;28;20020;-60
2022/06/14 19:24:32;;;;;;;2.40;1.50;;;19.10;76.00;;;;;;10505776;28;20031;-60
2022/06/14 19:29:40;;;;;;;7.95;1.63;;;19.20;76.60;;;;;;10508799;28;20048;-57
2022/06/14 19:34:55;;;;;;;2.78;1.50;;;19.20;75.90;;;;;;10507330;28;20028;-57
2022/06/14 19:40:02;;;;;;;4.30;1.67;;;19.20;76.00;;;;;;10506943;28;20169;-57
2022/06/14 19:45:05;;;;;;;3.92;1.45;;;19.20;75.90;;;;;;10516782;28;20164;-57
2022/06/14 19:50:28;;;;;;;2.92;1.48;;;19.20;75.80;;;;;;10505174;28;20063;-60
2022/06/14 19:55:41;;;;;;;2.58;1.42;;;19.20;75.90;;;;;;10508321;28;20150;-57
2022/06/14 20:00:46;;;;;;;2.28;1.67;;;19.20;75.90;;;;;;10514012;28;20016;-58
2022/06/14 20:05:47;;;;;;;2.92;1.88;;;19.20;75.90;;;;;;10509612;28;20591;-57
2022/06/14 20:10:50;;;;;;;2.47;1.75;;;19.20;75.90;;;;;;10506492;28;20081;-60
2022/06/14 20:16:03;;;;;;;3.55;1.65;;;19.20;75.90;;;;;;10503490;28;20032;-60
2022/06/14 20:21:07;;;;;;;5.60;1.70;;;19.20;76.10;;;;;;10511341;28;20013;-60
2022/06/14 20:26:09;;;;;;;3.20;2.05;;;19.10;76.00;;;;;;10507889;28;20055;-57
2022/06/14 20:31:14;;;;;;;4.00;2.50;;;19.10;76.00;;;;;;10504362;28;20132;-57
2022/06/14 20:36:26;;;;;;;3.30;1.83;;;19.10;76.10;;;;;;10504606;28;20029;-58
2022/06/14 20:41:31;;;;;;;3.60;1.85;;;19.10;76.30;;;;;;10502478;28;20019;-57
2022/06/14 20:46:33;;;;;;;3.97;2.03;;;19.10;76.30;;;;;;10502635;28;20446;-59
2022/06/14 20:51:42;;;;;;;3.33;1.95;;;19.10;76.40;;;;;;10504071;28;20027;-61
2022/06/14 20:56:46;;;;;;;3.50;1.80;;;19.00;76.30;;;;;;10506554;28;20024;-57
2022/06/14 21:01:47;;;;;;;2.42;2.03;;;19.00;76.40;;;;;;10511887;28;20059;-60
2022/06/14 21:06:48;;;;;;;4.28;1.90;;;19.00;76.50;;;;;;10508479;28;20514;-58
2022/06/14 21:11:50;;;;;;;4.20;2.03;;;19.00;76.50;;;;;;10504441;28;20055;-56
2022/06/14 21:16:56;;;;;;;3.67;1.95;;;18.90;76.60;;;;;;10510057;28;20032;-57
2022/06/14 21:21:59;;;;;;;3.03;1.90;;;18.90;76.70;;;;;;10511908;28;20164;-56
2022/06/14 21:27:18;;;;;;;2.97;2.13;;;18.90;76.70;;;;;;10519813;28;20028;-57
2022/06/14 21:32:40;;;;;;;2.65;2.00;;;18.90;77.00;;;;;;10518563;28;20023;-57
2022/06/14 21:37:49;;;;;;;3.65;1.60;;;18.90;76.90;;;;;;10521745;28;20070;-56
2022/06/14 21:42:54;;;;;;;2.42;1.80;;;18.80;76.90;;;;;;10511285;28;20074;-56
2022/06/14 21:47:57;;;;;;;2.47;1.70;;;18.80;76.90;;;;;;10513586;28;20035;-57
2022/06/14 21:53:00;;;;;;;2.53;1.52;;;18.80;77.60;;;;;;10517930;28;20036;-57
2022/06/14 21:58:01;;;;;;;3.05;1.60;;;18.80;77.00;;;;;;10510008;28;20028;-57
2022/06/14 22:03:23;;;;;;;2.95;1.63;;;18.70;76.90;;;;;;10513537;28;20029;-59
2022/06/14 22:08:24;;;;;;;2.75;1.75;;;18.70;77.10;;;;;;10514219;28;20032;-57
2022/06/14 22:13:38;;;;;;;2.70;1.77;;;18.70;77.10;;;;;;10505617;28;20032;-61
2022/06/14 22:18:38;;;;;;;2.33;1.88;;;18.60;77.20;;;;;;10503816;28;20128;-56
2022/06/14 22:29:01;;;;;;;3.30;2.15;;;18.60;77.20;;;;;;10508639;28;20036;-58
2022/06/14 22:34:03;;;;;;;2.85;2.17;;;18.60;77.30;;;;;;10511864;28;20032;-56
2022/06/14 22:39:03;;;;;;;2.58;1.80;;;18.50;77.90;;;;;;10503444;28;20115;-56
2022/06/14 22:44:04;;;;;;;2.40;2.08;;;18.50;77.40;;;;;;10511684;28;20081;-61
2022/06/14 22:49:05;;;;;;;2.85;2.20;;;18.50;77.40;;;;;;10509521;28;20032;-57
2022/06/14 22:54:06;;;;;;;2.97;2.08;;;18.40;77.40;;;;;;10509971;28;20086;-56
2022/06/14 22:59:08;;;;;;;3.38;2.40;;;18.40;77.50;;;;;;10510540;28;20029;-57
2022/06/14 23:04:09;;;;;;;3.25;2.33;;;18.40;77.50;;;;;;10508203;28;20027;-56
2022/06/14 23:09:11;;;;;;;5.32;2.63;;;18.40;77.60;;;;;;10503325;28;20031;-59
2022/06/14 23:14:17;;;;;;;4.05;2.30;;;18.30;77.50;;;;;;10507293;28;20040;-56
2022/06/14 23:19:18;;;;;;;4.15;2.25;;;18.30;77.60;;;;;;10501586;28;20072;-60
2022/06/14 23:24:19;;;;;;;3.05;2.42;;;18.30;77.60;;;;;;10502052;28;20028;-59
2022/06/14 23:29:20;;;;;;;2.75;2.10;;;18.30;77.60;;;;;;10508252;28;20401;-56
2022/06/14 23:34:20;;;;;;;4.13;2.53;;;18.20;77.60;;;;;;10506267;28;20071;-56
2022/06/14 23:39:21;;;;;;;4.50;2.10;;;18.20;77.60;;;;;;10503386;28;20039;-60
2022/06/14 23:44:22;;;;;;;3.38;2.25;;;18.20;77.60;;;;;;10506143;28;20051;-56
2022/06/14 23:49:23;;;;;;;3.33;2.05;;;18.20;77.70;;;;;;10503221;28;20020;-57
2022/06/14 23:54:23;;;;;;;2.95;2.28;;;18.10;77.70;;;;;;10502725;28;20037;-56
2022/06/14 23:59:24;;;;;;;5.68;2.50;;;18.10;77.70;;;;;;10507950;28;20023;-56
